sensor_id;sensor_type;location;lat;lon;timestamp;P1;durP1;ratioP1;P2;durP2;ratioP2
77220;SDS011;66217;50.004;8.266;2023-02-01T00:01:59;4.78;;;3.03;;
77220;SDS011;66217;50.004;8.266;2023-02-01T00:04:25;4.50;;;3.10;;
77220;SDS011;66217;50.004;8.266;2023-02-01T00:06:50;4.75;;;3.50;;
77220;SDS011;66217;50.004;8.266;2023-02-01T00:09:16;6.95;;;3.17;;
77220;SDS011;66217;50.004;8.266;2023-02-01T00:11:41;6.65;;;3.58;;
77220;SDS011;66217;50.004;8.266;2023-02-01T00:14:06;4.82;;;3.10;;
77220;SDS011;66217;50.004;8.266;2023-02-01T00:16:33;5.50;;;3.35;;
77220;SDS011;66217;50.004;8.266;2023-02-01T00:19:00;5.55;;;3.20;;
77220;SDS011;66217;50.004;8.266;2023-02-01T00:21:27;5.82;;;3.55;;
77220;SDS011;66217;50.004;8.266;2023-02-01T00:23:53;5.93;;;3.55;;
77220;SDS011;66217;50.004;8.266;2023-02-01T00:26:19;6.88;;;3.58;;
77220;SDS011;66217;50.004;8.266;2023-02-01T00:28:57;8.40;;;3.80;;
77220;SDS011;66217;50.004;8.266;2023-02-01T00:31:22;9.05;;;4.25;;
77220;SDS011;66217;50.004;8.266;2023-02-01T00:33:48;6.85;;;3.70;;
77220;SDS011;66217;50.004;8.266;2023-02-01T00:36:14;6.85;;;3.72;;
77220;SDS011;66217;50.004;8.266;2023-02-01T00:38:40;5.30;;;3.25;;
77220;SDS011;66217;50.004;8.266;2023-02-01T00:41:10;8.95;;;3.88;;
77220;SDS011;66217;50.004;8.266;2023-02-01T00:43:43;6.38;;;3.80;;
77220;SDS011;66217;50.004;8.266;2023-02-01T00:46:09;11.23;;;4.63;;
77220;SDS011;66217;50.004;8.266;2023-02-01T00:48:35;5.95;;;3.75;;
77220;SDS011;66217;50.004;8.266;2023-02-01T00:51:02;6.22;;;4.05;;
77220;SDS011;66217;50.004;8.266;2023-02-01T00:53:47;4.85;;;3.42;;
77220;SDS011;66217;50.004;8.266;2023-02-01T00:56:12;6.70;;;4.28;;
77220;SDS011;66217;50.004;8.266;2023-02-01T00:58:39;8.38;;;3.88;;
77220;SDS011;66217;50.004;8.266;2023-02-01T01:01:07;5.30;;;3.33;;
77220;SDS011;66217;50.004;8.266;2023-02-01T01:03:35;10.23;;;4.50;;
77220;SDS011;66217;50.004;8.266;2023-02-01T01:06:03;5.53;;;4.35;;
77220;SDS011;66217;50.004;8.266;2023-02-01T01:08:31;5.78;;;4.13;;
77220;SDS011;66217;50.004;8.266;2023-02-01T01:10:56;5.30;;;3.33;;
77220;SDS011;66217;50.004;8.266;2023-02-01T01:13:22;7.63;;;3.97;;
77220;SDS011;66217;50.004;8.266;2023-02-01T01:15:48;10.65;;;4.50;;
77220;SDS011;66217;50.004;8.266;2023-02-01T01:18:14;5.72;;;4.10;;
77220;SDS011;66217;50.004;8.266;2023-02-01T01:20:39;6.05;;;4.05;;
77220;SDS011;66217;50.004;8.266;2023-02-01T01:23:05;7.07;;;4.38;;
77220;SDS011;66217;50.004;8.266;2023-02-01T01:25:31;8.60;;;4.28;;
77220;SDS011;66217;50.004;8.266;2023-02-01T01:27:57;9.80;;;4.28;;
77220;SDS011;66217;50.004;8.266;2023-02-01T01:30:23;8.10;;;3.95;;
77220;SDS011;66217;50.004;8.266;2023-02-01T01:32:48;7.97;;;3.50;;
77220;SDS011;66217;50.004;8.266;2023-02-01T01:35:14;10.30;;;4.85;;
77220;SDS011;66217;50.004;8.266;2023-02-01T01:37:39;7.50;;;4.15;;
77220;SDS011;66217;50.004;8.266;2023-02-01T01:40:05;7.93;;;4.72;;
77220;SDS011;66217;50.004;8.266;2023-02-01T01:42:39;6.18;;;4.40;;
77220;SDS011;66217;50.004;8.266;2023-02-01T01:45:07;7.80;;;4.70;;
77220;SDS011;66217;50.004;8.266;2023-02-01T01:47:44;7.43;;;4.65;;
77220;SDS011;66217;50.004;8.266;2023-02-01T01:50:14;9.40;;;4.93;;
77220;SDS011;66217;50.004;8.266;2023-02-01T01:52:42;10.40;;;5.20;;
77220;SDS011;66217;50.004;8.266;2023-02-01T01:55:09;6.63;;;4.82;;
77220;SDS011;66217;50.004;8.266;2023-02-01T01:57:36;9.00;;;5.20;;
77220;SDS011;66217;50.004;8.266;2023-02-01T02:00:13;11.35;;;4.80;;
77220;SDS011;66217;50.004;8.266;2023-02-01T02:02:43;12.15;;;4.90;;
77220;SDS011;66217;50.004;8.266;2023-02-01T02:05:10;10.90;;;4.97;;
77220;SDS011;66217;50.004;8.266;2023-02-01T02:07:37;9.95;;;5.03;;
77220;SDS011;66217;50.004;8.266;2023-02-01T02:10:06;10.35;;;5.22;;
77220;SDS011;66217;50.004;8.266;2023-02-01T02:12:37;13.35;;;5.72;;
77220;SDS011;66217;50.004;8.266;2023-02-01T02:15:11;16.52;;;5.63;;
77220;SDS011;66217;50.004;8.266;2023-02-01T02:17:47;10.95;;;5.47;;
77220;SDS011;66217;50.004;8.266;2023-02-01T02:28:53;9.80;;;5.68;;
77220;SDS011;66217;50.004;8.266;2023-02-01T02:34:17;8.18;;;5.10;;
77220;SDS011;66217;50.004;8.266;2023-02-01T02:39:54;8.90;;;5.13;;
77220;SDS011;66217;50.004;8.266;2023-02-01T02:42:29;7.78;;;4.85;;
77220;SDS011;66217;50.004;8.266;2023-02-01T02:45:38;11.02;;;5.05;;
77220;SDS011;66217;50.004;8.266;2023-02-01T02:51:32;10.50;;;5.32;;
77220;SDS011;66217;50.004;8.266;2023-02-01T02:54:21;13.63;;;6.25;;
77220;SDS011;66217;50.004;8.266;2023-02-01T02:57:08;10.57;;;5.70;;
77220;SDS011;66217;50.004;8.266;2023-02-01T02:59:57;10.50;;;5.72;;
77220;SDS011;66217;50.004;8.266;2023-02-01T03:02:43;9.45;;;5.07;;
77220;SDS011;66217;50.004;8.266;2023-02-01T03:05:39;10.52;;;4.85;;
77220;SDS011;66217;50.004;8.266;2023-02-01T03:10:37;7.85;;;4.68;;
77220;SDS011;66217;50.004;8.266;2023-02-01T03:13:20;8.38;;;4.20;;
77220;SDS011;66217;50.004;8.266;2023-02-01T03:24:44;13.55;;;4.55;;
77220;SDS011;66217;50.004;8.266;2023-02-01T03:27:05;6.15;;;4.10;;
77220;SDS011;66217;50.004;8.266;2023-02-01T03:29:37;9.15;;;4.20;;
77220;SDS011;66217;50.004;8.266;2023-02-01T03:32:05;11.65;;;4.75;;
77220;SDS011;66217;50.004;8.266;2023-02-01T03:34:30;8.52;;;4.47;;
77220;SDS011;66217;50.004;8.266;2023-02-01T03:37:00;9.07;;;4.18;;
77220;SDS011;66217;50.004;8.266;2023-02-01T03:42:18;5.60;;;4.15;;
77220;SDS011;66217;50.004;8.266;2023-02-01T03:44:51;12.70;;;4.55;;
77220;SDS011;66217;50.004;8.266;2023-02-01T03:47:25;6.43;;;3.63;;
77220;SDS011;66217;50.004;8.266;2023-02-01T03:52:28;6.50;;;3.60;;
77220;SDS011;66217;50.004;8.266;2023-02-01T03:54:55;6.38;;;3.33;;
77220;SDS011;66217;50.004;8.266;2023-02-01T03:57:23;10.75;;;3.25;;
77220;SDS011;66217;50.004;8.266;2023-02-01T03:59:52;5.55;;;3.22;;
77220;SDS011;66217;50.004;8.266;2023-02-01T04:02:17;9.65;;;3.40;;
77220;SDS011;66217;50.004;8.266;2023-02-01T04:04:43;5.70;;;3.30;;
77220;SDS011;66217;50.004;8.266;2023-02-01T04:07:08;9.68;;;3.65;;
77220;SDS011;66217;50.004;8.266;2023-02-01T04:09:34;9.57;;;3.53;;
77220;SDS011;66217;50.004;8.266;2023-02-01T04:12:02;5.20;;;3.08;;
77220;SDS011;66217;50.004;8.266;2023-02-01T04:14:27;7.88;;;4.07;;
77220;SDS011;66217;50.004;8.266;2023-02-01T04:16:53;7.95;;;3.50;;
77220;SDS011;66217;50.004;8.266;2023-02-01T04:19:19;8.20;;;3.30;;
77220;SDS011;66217;50.004;8.266;2023-02-01T04:21:45;7.18;;;2.95;;
77220;SDS011;66217;50.004;8.266;2023-02-01T04:24:10;11.30;;;4.00;;
77220;SDS011;66217;50.004;8.266;2023-02-01T04:26:36;11.82;;;3.85;;
77220;SDS011;66217;50.004;8.266;2023-02-01T04:29:01;7.05;;;3.65;;
77220;SDS011;66217;50.004;8.266;2023-02-01T04:31:27;7.22;;;3.03;;
77220;SDS011;66217;50.004;8.266;2023-02-01T04:33:53;8.55;;;3.22;;
77220;SDS011;66217;50.004;8.266;2023-02-01T04:36:19;5.72;;;2.80;;
77220;SDS011;66217;50.004;8.266;2023-02-01T04:38:49;10.50;;;3.05;;
77220;SDS011;66217;50.004;8.266;2023-02-01T04:41:15;8.80;;;3.00;;
77220;SDS011;66217;50.004;8.266;2023-02-01T04:43:44;10.50;;;3.08;;
77220;SDS011;66217;50.004;8.266;2023-02-01T04:46:12;9.43;;;3.10;;
77220;SDS011;66217;50.004;8.266;2023-02-01T04:48:37;9.35;;;3.03;;
77220;SDS011;66217;50.004;8.266;2023-02-01T04:51:03;9.18;;;2.47;;
77220;SDS011;66217;50.004;8.266;2023-02-01T04:53:28;11.98;;;3.50;;
77220;SDS011;66217;50.004;8.266;2023-02-01T04:55:56;8.50;;;2.72;;
77220;SDS011;66217;50.004;8.266;2023-02-01T04:58:21;7.53;;;2.65;;
77220;SDS011;66217;50.004;8.266;2023-02-01T05:00:47;13.18;;;2.92;;
77220;SDS011;66217;50.004;8.266;2023-02-01T05:03:12;7.70;;;2.88;;
77220;SDS011;66217;50.004;8.266;2023-02-01T05:05:38;8.93;;;2.88;;
77220;SDS011;66217;50.004;8.266;2023-02-01T05:08:03;10.02;;;2.97;;
77220;SDS011;66217;50.004;8.266;2023-02-01T05:10:28;7.78;;;2.50;;
77220;SDS011;66217;50.004;8.266;2023-02-01T05:12:54;7.95;;;2.70;;
77220;SDS011;66217;50.004;8.266;2023-02-01T05:15:38;9.10;;;2.50;;
77220;SDS011;66217;50.004;8.266;2023-02-01T05:18:03;11.55;;;2.80;;
77220;SDS011;66217;50.004;8.266;2023-02-01T05:20:29;12.52;;;3.35;;
77220;SDS011;66217;50.004;8.266;2023-02-01T05:22:54;7.25;;;2.40;;
77220;SDS011;66217;50.004;8.266;2023-02-01T05:25:20;8.30;;;2.53;;
77220;SDS011;66217;50.004;8.266;2023-02-01T05:27:45;14.68;;;2.83;;
77220;SDS011;66217;50.004;8.266;2023-02-01T05:30:11;11.75;;;2.85;;
77220;SDS011;66217;50.004;8.266;2023-02-01T05:32:39;8.90;;;3.22;;
77220;SDS011;66217;50.004;8.266;2023-02-01T05:35:05;9.57;;;2.60;;
77220;SDS011;66217;50.004;8.266;2023-02-01T05:37:31;7.53;;;2.65;;
77220;SDS011;66217;50.004;8.266;2023-02-01T05:39:56;10.20;;;3.03;;
77220;SDS011;66217;50.004;8.266;2023-02-01T05:42:22;15.75;;;3.05;;
77220;SDS011;66217;50.004;8.266;2023-02-01T05:44:47;9.70;;;2.95;;
77220;SDS011;66217;50.004;8.266;2023-02-01T05:47:13;10.70;;;3.05;;
77220;SDS011;66217;50.004;8.266;2023-02-01T05:49:38;8.05;;;2.25;;
77220;SDS011;66217;50.004;8.266;2023-02-01T05:52:04;10.27;;;2.70;;
77220;SDS011;66217;50.004;8.266;2023-02-01T05:54:29;10.18;;;2.70;;
77220;SDS011;66217;50.004;8.266;2023-02-01T05:56:55;11.00;;;2.45;;
77220;SDS011;66217;50.004;8.266;2023-02-01T05:59:20;9.98;;;2.80;;
77220;SDS011;66217;50.004;8.266;2023-02-01T06:01:46;5.82;;;2.00;;
77220;SDS011;66217;50.004;8.266;2023-02-01T06:04:11;8.77;;;2.53;;
77220;SDS011;66217;50.004;8.266;2023-02-01T06:06:36;7.93;;;2.72;;
77220;SDS011;66217;50.004;8.266;2023-02-01T06:09:02;9.05;;;2.88;;
77220;SDS011;66217;50.004;8.266;2023-02-01T06:11:28;5.53;;;2.00;;
77220;SDS011;66217;50.004;8.266;2023-02-01T06:13:53;17.30;;;2.85;;
77220;SDS011;66217;50.004;8.266;2023-02-01T06:16:20;9.93;;;2.33;;
77220;SDS011;66217;50.004;8.266;2023-02-01T06:18:46;7.35;;;2.10;;
77220;SDS011;66217;50.004;8.266;2023-02-01T06:21:14;8.20;;;2.78;;
77220;SDS011;66217;50.004;8.266;2023-02-01T06:23:48;10.18;;;2.47;;
77220;SDS011;66217;50.004;8.266;2023-02-01T06:26:17;7.78;;;2.15;;
77220;SDS011;66217;50.004;8.266;2023-02-01T06:28:43;11.80;;;3.55;;
77220;SDS011;66217;50.004;8.266;2023-02-01T06:31:08;14.10;;;2.67;;
77220;SDS011;66217;50.004;8.266;2023-02-01T06:33:34;10.43;;;2.63;;
77220;SDS011;66217;50.004;8.266;2023-02-01T06:36:00;10.10;;;2.17;;
77220;SDS011;66217;50.004;8.266;2023-02-01T06:38:27;20.35;;;3.60;;
77220;SDS011;66217;50.004;8.266;2023-02-01T06:40:56;16.45;;;2.97;;
77220;SDS011;66217;50.004;8.266;2023-02-01T06:43:23;9.55;;;3.05;;
77220;SDS011;66217;50.004;8.266;2023-02-01T06:45:49;12.25;;;2.80;;
77220;SDS011;66217;50.004;8.266;2023-02-01T06:48:15;7.40;;;2.50;;
77220;SDS011;66217;50.004;8.266;2023-02-01T06:50:41;10.27;;;2.58;;
77220;SDS011;66217;50.004;8.266;2023-02-01T06:53:06;11.45;;;3.20;;
77220;SDS011;66217;50.004;8.266;2023-02-01T06:55:32;16.13;;;3.17;;
77220;SDS011;66217;50.004;8.266;2023-02-01T06:57:57;8.93;;;2.65;;
77220;SDS011;66217;50.004;8.266;2023-02-01T07:00:23;16.42;;;2.92;;
77220;SDS011;66217;50.004;8.266;2023-02-01T07:02:49;7.60;;;2.13;;
77220;SDS011;66217;50.004;8.266;2023-02-01T07:05:17;10.75;;;2.72;;
77220;SDS011;66217;50.004;8.266;2023-02-01T07:07:43;13.50;;;3.08;;
77220;SDS011;66217;50.004;8.266;2023-02-01T07:10:09;7.03;;;2.20;;
77220;SDS011;66217;50.004;8.266;2023-02-01T07:12:35;13.43;;;2.50;;
77220;SDS011;66217;50.004;8.266;2023-02-01T07:15:00;8.75;;;2.88;;
77220;SDS011;66217;50.004;8.266;2023-02-01T07:17:27;8.48;;;2.90;;
77220;SDS011;66217;50.004;8.266;2023-02-01T07:19:54;15.82;;;2.50;;
77220;SDS011;66217;50.004;8.266;2023-02-01T07:22:20;11.25;;;2.80;;
77220;SDS011;66217;50.004;8.266;2023-02-01T07:24:45;14.73;;;3.13;;
77220;SDS011;66217;50.004;8.266;2023-02-01T07:27:11;13.90;;;2.92;;
77220;SDS011;66217;50.004;8.266;2023-02-01T07:29:36;10.43;;;2.55;;
77220;SDS011;66217;50.004;8.266;2023-02-01T07:32:02;11.73;;;2.70;;
77220;SDS011;66217;50.004;8.266;2023-02-01T07:34:28;6.20;;;2.55;;
77220;SDS011;66217;50.004;8.266;2023-02-01T07:36:53;12.57;;;2.85;;
77220;SDS011;66217;50.004;8.266;2023-02-01T07:39:19;12.25;;;2.38;;
77220;SDS011;66217;50.004;8.266;2023-02-01T07:41:45;16.38;;;2.75;;
77220;SDS011;66217;50.004;8.266;2023-02-01T07:44:11;8.90;;;2.88;;
77220;SDS011;66217;50.004;8.266;2023-02-01T07:46:37;12.90;;;3.20;;
77220;SDS011;66217;50.004;8.266;2023-02-01T07:49:04;12.35;;;3.22;;
77220;SDS011;66217;50.004;8.266;2023-02-01T07:51:30;8.70;;;3.35;;
77220;SDS011;66217;50.004;8.266;2023-02-01T07:53:55;16.67;;;3.03;;
77220;SDS011;66217;50.004;8.266;2023-02-01T07:56:21;12.40;;;2.40;;
77220;SDS011;66217;50.004;8.266;2023-02-01T07:58:48;10.45;;;3.05;;
77220;SDS011;66217;50.004;8.266;2023-02-01T08:01:18;6.60;;;2.65;;
77220;SDS011;66217;50.004;8.266;2023-02-01T08:03:45;10.07;;;3.28;;
77220;SDS011;66217;50.004;8.266;2023-02-01T08:06:11;11.82;;;3.13;;
77220;SDS011;66217;50.004;8.266;2023-02-01T08:08:37;8.02;;;2.92;;
77220;SDS011;66217;50.004;8.266;2023-02-01T08:11:04;18.27;;;3.70;;
77220;SDS011;66217;50.004;8.266;2023-02-01T08:13:30;13.80;;;2.55;;
77220;SDS011;66217;50.004;8.266;2023-02-01T08:15:59;12.15;;;3.20;;
77220;SDS011;66217;50.004;8.266;2023-02-01T08:18:25;12.68;;;2.88;;
77220;SDS011;66217;50.004;8.266;2023-02-01T08:20:51;7.47;;;2.42;;
77220;SDS011;66217;50.004;8.266;2023-02-01T08:23:16;10.50;;;2.58;;
77220;SDS011;66217;50.004;8.266;2023-02-01T08:25:42;11.75;;;2.25;;
77220;SDS011;66217;50.004;8.266;2023-02-01T08:28:08;9.00;;;2.28;;
77220;SDS011;66217;50.004;8.266;2023-02-01T08:30:33;13.52;;;2.50;;
77220;SDS011;66217;50.004;8.266;2023-02-01T08:32:59;14.48;;;2.88;;
77220;SDS011;66217;50.004;8.266;2023-02-01T08:35:26;10.93;;;2.65;;
77220;SDS011;66217;50.004;8.266;2023-02-01T08:37:51;12.55;;;3.20;;
77220;SDS011;66217;50.004;8.266;2023-02-01T08:40:17;14.35;;;3.42;;
77220;SDS011;66217;50.004;8.266;2023-02-01T08:42:42;9.48;;;2.53;;
77220;SDS011;66217;50.004;8.266;2023-02-01T08:45:21;9.98;;;3.17;;
77220;SDS011;66217;50.004;8.266;2023-02-01T08:47:51;9.18;;;2.53;;
77220;SDS011;66217;50.004;8.266;2023-02-01T08:50:19;14.40;;;2.30;;
77220;SDS011;66217;50.004;8.266;2023-02-01T08:52:45;12.55;;;2.38;;
77220;SDS011;66217;50.004;8.266;2023-02-01T08:55:11;14.13;;;3.00;;
77220;SDS011;66217;50.004;8.266;2023-02-01T08:57:37;11.32;;;2.67;;
77220;SDS011;66217;50.004;8.266;2023-02-01T09:00:04;10.50;;;2.72;;
77220;SDS011;66217;50.004;8.266;2023-02-01T09:02:31;12.55;;;2.58;;
77220;SDS011;66217;50.004;8.266;2023-02-01T09:04:56;8.93;;;2.60;;
77220;SDS011;66217;50.004;8.266;2023-02-01T09:07:21;15.18;;;2.95;;
77220;SDS011;66217;50.004;8.266;2023-02-01T09:09:47;9.52;;;2.20;;
77220;SDS011;66217;50.004;8.266;2023-02-01T09:12:12;9.52;;;2.35;;
77220;SDS011;66217;50.004;8.266;2023-02-01T09:14:38;9.98;;;2.58;;
77220;SDS011;66217;50.004;8.266;2023-02-01T09:17:03;8.35;;;2.38;;
77220;SDS011;66217;50.004;8.266;2023-02-01T09:19:30;13.75;;;2.25;;
77220;SDS011;66217;50.004;8.266;2023-02-01T09:21:56;13.57;;;3.08;;
77220;SDS011;66217;50.004;8.266;2023-02-01T09:24:21;11.70;;;2.70;;
77220;SDS011;66217;50.004;8.266;2023-02-01T09:26:47;14.77;;;3.20;;
77220;SDS011;66217;50.004;8.266;2023-02-01T09:29:13;9.38;;;2.50;;
77220;SDS011;66217;50.004;8.266;2023-02-01T09:31:39;10.82;;;2.47;;
77220;SDS011;66217;50.004;8.266;2023-02-01T09:34:05;9.00;;;2.42;;
77220;SDS011;66217;50.004;8.266;2023-02-01T09:36:31;6.68;;;2.08;;
77220;SDS011;66217;50.004;8.266;2023-02-01T09:38:57;14.05;;;2.45;;
77220;SDS011;66217;50.004;8.266;2023-02-01T09:41:26;7.47;;;2.08;;
77220;SDS011;66217;50.004;8.266;2023-02-01T09:44:37;5.53;;;2.08;;
77220;SDS011;66217;50.004;8.266;2023-02-01T09:47:25;14.32;;;3.28;;
77220;SDS011;66217;50.004;8.266;2023-02-01T09:50:02;11.35;;;2.65;;
77220;SDS011;66217;50.004;8.266;2023-02-01T09:52:34;10.13;;;2.45;;
77220;SDS011;66217;50.004;8.266;2023-02-01T09:55:04;11.90;;;2.55;;
77220;SDS011;66217;50.004;8.266;2023-02-01T09:57:44;9.65;;;2.30;;
77220;SDS011;66217;50.004;8.266;2023-02-01T10:02:44;15.18;;;2.75;;
77220;SDS011;66217;50.004;8.266;2023-02-01T10:05:16;12.70;;;2.50;;
77220;SDS011;66217;50.004;8.266;2023-02-01T10:07:51;18.33;;;2.75;;
77220;SDS011;66217;50.004;8.266;2023-02-01T10:10:45;8.70;;;2.45;;
77220;SDS011;66217;50.004;8.266;2023-02-01T10:13:16;17.35;;;2.63;;
77220;SDS011;66217;50.004;8.266;2023-02-01T10:24:49;11.00;;;2.30;;
77220;SDS011;66217;50.004;8.266;2023-02-01T10:27:34;10.80;;;2.38;;
77220;SDS011;66217;50.004;8.266;2023-02-01T10:30:05;13.50;;;3.05;;
77220;SDS011;66217;50.004;8.266;2023-02-01T10:32:39;9.88;;;2.58;;
77220;SDS011;66217;50.004;8.266;2023-02-01T10:35:47;20.75;;;2.58;;
77220;SDS011;66217;50.004;8.266;2023-02-01T10:37:54;11.20;;;2.55;;
77220;SDS011;66217;50.004;8.266;2023-02-01T10:40:24;8.27;;;2.67;;
77220;SDS011;66217;50.004;8.266;2023-02-01T10:42:52;13.73;;;2.30;;
77220;SDS011;66217;50.004;8.266;2023-02-01T10:45:20;7.32;;;1.83;;
77220;SDS011;66217;50.004;8.266;2023-02-01T10:47:48;13.95;;;2.50;;
77220;SDS011;66217;50.004;8.266;2023-02-01T10:50:16;25.50;;;3.92;;
77220;SDS011;66217;50.004;8.266;2023-02-01T10:52:49;12.98;;;2.58;;
77220;SDS011;66217;50.004;8.266;2023-02-01T10:58:03;8.95;;;2.28;;
77220;SDS011;66217;50.004;8.266;2023-02-01T11:00:43;7.22;;;2.30;;
77220;SDS011;66217;50.004;8.266;2023-02-01T11:05:55;19.50;;;2.80;;
77220;SDS011;66217;50.004;8.266;2023-02-01T11:08:20;15.57;;;2.53;;
77220;SDS011;66217;50.004;8.266;2023-02-01T11:10:46;9.02;;;2.30;;
77220;SDS011;66217;50.004;8.266;2023-02-01T11:13:16;10.50;;;2.38;;
77220;SDS011;66217;50.004;8.266;2023-02-01T11:15:43;10.48;;;2.00;;
77220;SDS011;66217;50.004;8.266;2023-02-01T11:18:21;9.25;;;2.10;;
77220;SDS011;66217;50.004;8.266;2023-02-01T11:20:52;11.15;;;2.13;;
77220;SDS011;66217;50.004;8.266;2023-02-01T11:23:19;8.88;;;2.28;;
77220;SDS011;66217;50.004;8.266;2023-02-01T11:25:55;11.93;;;2.67;;
77220;SDS011;66217;50.004;8.266;2023-02-01T11:28:27;11.85;;;2.33;;
77220;SDS011;66217;50.004;8.266;2023-02-01T11:30:56;12.35;;;2.83;;
77220;SDS011;66217;50.004;8.266;2023-02-01T11:33:26;13.80;;;2.70;;
77220;SDS011;66217;50.004;8.266;2023-02-01T11:35:55;12.07;;;2.25;;
77220;SDS011;66217;50.004;8.266;2023-02-01T11:38:29;10.20;;;3.13;;
77220;SDS011;66217;50.004;8.266;2023-02-01T11:41:20;10.40;;;2.50;;
77220;SDS011;66217;50.004;8.266;2023-02-01T11:43:51;12.80;;;2.88;;
77220;SDS011;66217;50.004;8.266;2023-02-01T11:46:26;13.95;;;2.67;;
77220;SDS011;66217;50.004;8.266;2023-02-01T11:48:55;17.48;;;2.50;;
77220;SDS011;66217;50.004;8.266;2023-02-01T12:16:07;14.70;;;2.85;;
77220;SDS011;66217;50.004;8.266;2023-02-01T12:18:42;9.70;;;2.00;;
77220;SDS011;66217;50.004;8.266;2023-02-01T12:21:17;11.95;;;2.47;;
77220;SDS011;66217;50.004;8.266;2023-02-01T12:38:18;12.55;;;2.75;;
77220;SDS011;66217;50.004;8.266;2023-02-01T12:43:46;8.82;;;2.35;;
77220;SDS011;66217;50.004;8.266;2023-02-01T12:46:17;9.60;;;2.28;;
77220;SDS011;66217;50.004;8.266;2023-02-01T12:51:29;9.25;;;2.40;;
77220;SDS011;66217;50.004;8.266;2023-02-01T12:54:03;9.75;;;2.03;;
77220;SDS011;66217;50.004;8.266;2023-02-01T12:59:16;16.05;;;2.47;;
77220;SDS011;66217;50.004;8.266;2023-02-01T13:01:46;13.40;;;2.35;;
77220;SDS011;66217;50.004;8.266;2023-02-01T13:04:24;8.48;;;2.33;;
77220;SDS011;66217;50.004;8.266;2023-02-01T13:07:37;13.88;;;2.45;;
77220;SDS011;66217;50.004;8.266;2023-02-01T13:12:12;7.55;;;1.92;;
77220;SDS011;66217;50.004;8.266;2023-02-01T13:14:49;8.50;;;2.17;;
77220;SDS011;66217;50.004;8.266;2023-02-01T13:17:19;8.27;;;2.33;;
77220;SDS011;66217;50.004;8.266;2023-02-01T13:19:53;14.27;;;2.80;;
77220;SDS011;66217;50.004;8.266;2023-02-01T13:22:30;9.88;;;2.42;;
77220;SDS011;66217;50.004;8.266;2023-02-01T13:25:01;13.48;;;2.45;;
77220;SDS011;66217;50.004;8.266;2023-02-01T13:27:29;6.68;;;2.28;;
77220;SDS011;66217;50.004;8.266;2023-02-01T13:29:59;10.23;;;2.83;;
77220;SDS011;66217;50.004;8.266;2023-02-01T13:43:54;10.68;;;2.38;;
77220;SDS011;66217;50.004;8.266;2023-02-01T13:46:22;12.13;;;2.63;;
77220;SDS011;66217;50.004;8.266;2023-02-01T13:48:49;8.25;;;2.10;;
77220;SDS011;66217;50.004;8.266;2023-02-01T13:51:41;12.27;;;2.13;;
77220;SDS011;66217;50.004;8.266;2023-02-01T13:54:06;8.38;;;1.92;;
77220;SDS011;66217;50.004;8.266;2023-02-01T13:56:39;11.55;;;2.22;;
77220;SDS011;66217;50.004;8.266;2023-02-01T14:05:07;11.95;;;2.53;;
77220;SDS011;66217;50.004;8.266;2023-02-01T14:08:23;11.00;;;2.80;;
77220;SDS011;66217;50.004;8.266;2023-02-01T14:11:01;9.35;;;2.67;;
77220;SDS011;66217;50.004;8.266;2023-02-01T14:13:28;9.20;;;2.70;;
77220;SDS011;66217;50.004;8.266;2023-02-01T14:31:35;9.95;;;1.90;;
77220;SDS011;66217;50.004;8.266;2023-02-01T14:34:10;9.77;;;2.63;;
77220;SDS011;66217;50.004;8.266;2023-02-01T14:36:43;7.97;;;2.03;;
77220;SDS011;66217;50.004;8.266;2023-02-01T14:39:20;7.60;;;1.92;;
77220;SDS011;66217;50.004;8.266;2023-02-01T14:41:51;9.85;;;1.90;;
77220;SDS011;66217;50.004;8.266;2023-02-01T14:44:24;8.60;;;1.95;;
77220;SDS011;66217;50.004;8.266;2023-02-01T14:47:11;6.75;;;1.95;;
77220;SDS011;66217;50.004;8.266;2023-02-01T14:49:55;11.05;;;2.45;;
77220;SDS011;66217;50.004;8.266;2023-02-01T14:52:22;9.27;;;2.00;;
77220;SDS011;66217;50.004;8.266;2023-02-01T14:54:54;11.25;;;2.72;;
77220;SDS011;66217;50.004;8.266;2023-02-01T14:57:21;9.20;;;2.03;;
77220;SDS011;66217;50.004;8.266;2023-02-01T14:59:53;7.88;;;1.95;;
77220;SDS011;66217;50.004;8.266;2023-02-01T15:02:24;11.27;;;2.58;;
77220;SDS011;66217;50.004;8.266;2023-02-01T15:04:55;9.13;;;2.20;;
77220;SDS011;66217;50.004;8.266;2023-02-01T15:07:22;7.90;;;2.85;;
77220;SDS011;66217;50.004;8.266;2023-02-01T15:09:49;11.35;;;2.50;;
77220;SDS011;66217;50.004;8.266;2023-02-01T15:12:16;10.82;;;1.98;;
77220;SDS011;66217;50.004;8.266;2023-02-01T15:14:47;10.88;;;2.35;;
77220;SDS011;66217;50.004;8.266;2023-02-01T15:17:20;11.40;;;2.13;;
77220;SDS011;66217;50.004;8.266;2023-02-01T15:20:03;12.77;;;2.30;;
77220;SDS011;66217;50.004;8.266;2023-02-01T15:22:38;9.52;;;2.20;;
77220;SDS011;66217;50.004;8.266;2023-02-01T15:25:04;8.80;;;2.10;;
77220;SDS011;66217;50.004;8.266;2023-02-01T15:27:30;9.23;;;2.50;;
77220;SDS011;66217;50.004;8.266;2023-02-01T15:33:16;7.25;;;2.05;;
77220;SDS011;66217;50.004;8.266;2023-02-01T15:38:25;11.95;;;2.22;;
77220;SDS011;66217;50.004;8.266;2023-02-01T15:40:57;12.93;;;2.35;;
77220;SDS011;66217;50.004;8.266;2023-02-01T15:46:09;10.10;;;1.98;;
77220;SDS011;66217;50.004;8.266;2023-02-01T15:48:41;13.88;;;2.28;;
77220;SDS011;66217;50.004;8.266;2023-02-01T15:51:18;10.95;;;2.70;;
77220;SDS011;66217;50.004;8.266;2023-02-01T15:53:46;6.50;;;1.83;;
77220;SDS011;66217;50.004;8.266;2023-02-01T15:56:14;8.20;;;2.55;;
77220;SDS011;66217;50.004;8.266;2023-02-01T15:58:41;12.77;;;2.30;;
77220;SDS011;66217;50.004;8.266;2023-02-01T16:01:15;12.07;;;2.10;;
77220;SDS011;66217;50.004;8.266;2023-02-01T16:03:42;4.55;;;1.63;;
77220;SDS011;66217;50.004;8.266;2023-02-01T16:06:28;6.93;;;1.92;;
77220;SDS011;66217;50.004;8.266;2023-02-01T16:08:59;8.13;;;1.73;;
77220;SDS011;66217;50.004;8.266;2023-02-01T16:11:29;11.57;;;1.95;;
77220;SDS011;66217;50.004;8.266;2023-02-01T16:16:22;5.00;;;1.63;;
77220;SDS011;66217;50.004;8.266;2023-02-01T16:18:48;7.03;;;1.80;;
77220;SDS011;66217;50.004;8.266;2023-02-01T16:21:14;13.55;;;2.33;;
77220;SDS011;66217;50.004;8.266;2023-02-01T16:23:39;8.93;;;2.13;;
77220;SDS011;66217;50.004;8.266;2023-02-01T16:26:05;5.95;;;1.90;;
77220;SDS011;66217;50.004;8.266;2023-02-01T16:28:31;13.35;;;2.03;;
77220;SDS011;66217;50.004;8.266;2023-02-01T16:30:57;9.48;;;2.72;;
77220;SDS011;66217;50.004;8.266;2023-02-01T16:33:22;9.85;;;2.35;;
77220;SDS011;66217;50.004;8.266;2023-02-01T16:35:50;10.88;;;2.03;;
77220;SDS011;66217;50.004;8.266;2023-02-01T16:38:17;8.38;;;2.00;;
77220;SDS011;66217;50.004;8.266;2023-02-01T16:40:46;6.95;;;1.90;;
77220;SDS011;66217;50.004;8.266;2023-02-01T16:43:13;10.02;;;2.00;;
77220;SDS011;66217;50.004;8.266;2023-02-01T16:45:43;9.43;;;2.50;;
77220;SDS011;66217;50.004;8.266;2023-02-01T16:48:34;11.10;;;2.40;;
77220;SDS011;66217;50.004;8.266;2023-02-01T16:51:03;6.07;;;1.85;;
77220;SDS011;66217;50.004;8.266;2023-02-01T16:53:32;10.93;;;2.35;;
77220;SDS011;66217;50.004;8.266;2023-02-01T16:55:58;12.75;;;2.00;;
77220;SDS011;66217;50.004;8.266;2023-02-01T16:58:24;7.38;;;2.00;;
77220;SDS011;66217;50.004;8.266;2023-02-01T17:00:50;11.23;;;2.63;;
77220;SDS011;66217;50.004;8.266;2023-02-01T17:03:17;8.48;;;2.28;;
77220;SDS011;66217;50.004;8.266;2023-02-01T17:05:48;8.30;;;2.30;;
77220;SDS011;66217;50.004;8.266;2023-02-01T17:08:18;12.20;;;2.03;;
77220;SDS011;66217;50.004;8.266;2023-02-01T17:10:47;8.48;;;2.45;;
77220;SDS011;66217;50.004;8.266;2023-02-01T17:13:14;10.75;;;2.60;;
77220;SDS011;66217;50.004;8.266;2023-02-01T17:15:40;18.42;;;2.80;;
77220;SDS011;66217;50.004;8.266;2023-02-01T17:18:11;13.52;;;2.53;;
77220;SDS011;66217;50.004;8.266;2023-02-01T17:20:39;9.73;;;2.40;;